EWG28U EDDH-LOWS
Flight info
| Callsign | EWG28U |
|---|---|
| Flight time | 0h 58m |
| Altitude | 35000 |
| Route | AMLUH2G AMLUH M852 DENIX DCT ZUCKA DCT SODRO T703 ARMUT/N0456F310 T703 ARBAX/N0457F300 T108 OSTES T700 BADIT BADIT2R |
| Aircraft | A321/M-SDE3FGHIRWY/LB1 |
Departure
| Time | 2026-04-24 19:53 |
|---|---|
| Airport | Hamburg Helmut Schmidt Airport (EDDH) |
Arrival
| Time | 2026-04-24 20:52 |
|---|---|
| Airport | Salzburg Airport (LOWS) |
| Time | Latitude | Longitude | Altitude | Speed | Heading |
|---|---|---|---|---|---|
| 2026-04-24 19:24 | 53.62773 | 10.00272 | 49 ft | 0 kts | 63° |
| 2026-04-24 19:40 | 53.62770 | 10.00263 | 48 ft | 4 kts | 64° |
| 2026-04-24 19:41 | 53.62760 | 10.00221 | 46 ft | 4 kts | 73° |
| 2026-04-24 19:41 | 53.62755 | 10.00178 | 48 ft | 4 kts | 95° |
| 2026-04-24 19:41 | 53.62763 | 10.00143 | 46 ft | 2 kts | 150° |
| 2026-04-24 19:41 | 53.62765 | 10.00141 | 45 ft | 0 kts | 153° |
| 2026-04-24 19:43 | 53.62755 | 10.00150 | 47 ft | 5 kts | 153° |
| 2026-04-24 19:43 | 53.62712 | 10.00186 | 48 ft | 7 kts | 153° |
| 2026-04-24 19:43 | 53.62674 | 10.00219 | 48 ft | 6 kts | 153° |
| 2026-04-24 19:44 | 53.62639 | 10.00249 | 48 ft | 6 kts | 153° |
| 2026-04-24 19:44 | 53.62596 | 10.00261 | 48 ft | 7 kts | 199° |
| 2026-04-24 19:44 | 53.62570 | 10.00207 | 48 ft | 0 kts | 243° |
| 2026-04-24 19:45 | 53.62569 | 10.00203 | 48 ft | 3 kts | 243° |
| 2026-04-24 19:46 | 53.62553 | 10.00150 | 47 ft | 6 kts | 243° |
| 2026-04-24 19:46 | 53.62543 | 10.00054 | 47 ft | 10 kts | 286° |
| 2026-04-24 19:46 | 53.62573 | 10.00001 | 47 ft | 2 kts | 330° |
| 2026-04-24 19:46 | 53.62574 | 10.00001 | 47 ft | 0 kts | 330° |
| 2026-04-24 19:48 | 53.62574 | 10.00000 | 47 ft | 0 kts | 330° |
| 2026-04-24 19:48 | 53.62577 | 9.99998 | 47 ft | 0 kts | 330° |
| 2026-04-24 19:49 | 53.62579 | 9.99995 | 47 ft | 0 kts | 330° |
| 2026-04-24 19:49 | 53.62581 | 9.99994 | 47 ft | 0 kts | 330° |
| 2026-04-24 19:50 | 53.62581 | 9.99993 | 47 ft | 0 kts | 330° |
| 2026-04-24 19:51 | 53.62582 | 9.99993 | 47 ft | 0 kts | 330° |
| 2026-04-24 19:52 | 53.62583 | 9.99992 | 47 ft | 0 kts | 329° |
| 2026-04-24 19:52 | 53.62584 | 9.99991 | 47 ft | 0 kts | 329° |
| 2026-04-24 19:52 | 53.62635 | 9.99943 | 47 ft | 32 kts | 332° |
| 2026-04-24 19:53 | 53.63052 | 9.99583 | 46 ft | 99 kts | 333° |
| 2026-04-24 19:53 | 53.63832 | 9.98909 | 50 ft | 149 kts | 333° |
| 2026-04-24 19:53 | 53.65803 | 9.97215 | 1130 ft | 157 kts | 330° |
| 2026-04-24 19:54 | 53.66805 | 9.96355 | 1592 ft | 169 kts | 330° |
| 2026-04-24 19:54 | 53.67911 | 9.95391 | 1895 ft | 188 kts | 330° |
| 2026-04-24 19:54 | 53.69154 | 9.94579 | 2416 ft | 197 kts | 349° |
| 2026-04-24 19:54 | 53.70537 | 9.94628 | 3161 ft | 198 kts | 0° |
| 2026-04-24 19:55 | 53.71442 | 9.94699 | 3675 ft | 197 kts | 359° |
| 2026-04-24 19:55 | 53.73170 | 9.95880 | 4501 ft | 216 kts | 40° |
| 2026-04-24 19:55 | 53.73905 | 9.98199 | 5076 ft | 236 kts | 74° |
| 2026-04-24 19:55 | 53.74122 | 10.00965 | 5758 ft | 239 kts | 78° |
| 2026-04-24 19:56 | 53.74028 | 10.03805 | 6397 ft | 249 kts | 101° |
| 2026-04-24 19:56 | 53.73298 | 10.06622 | 6652 ft | 276 kts | 117° |
| 2026-04-24 19:56 | 53.72302 | 10.09541 | 6965 ft | 295 kts | 117° |
| 2026-04-24 19:56 | 53.71262 | 10.12570 | 7559 ft | 301 kts | 117° |
| 2026-04-24 19:57 | 53.70223 | 10.15599 | 8533 ft | 289 kts | 118° |
| 2026-04-24 19:57 | 53.69055 | 10.18316 | 9459 ft | 287 kts | 133° |
| 2026-04-24 19:57 | 53.67482 | 10.20513 | 9821 ft | 305 kts | 149° |
| 2026-04-24 19:57 | 53.65485 | 10.21963 | 10078 ft | 318 kts | 166° |
| 2026-04-24 19:58 | 53.63297 | 10.22942 | 10140 ft | 338 kts | 167° |
| 2026-04-24 19:58 | 53.60978 | 10.23978 | 10139 ft | 347 kts | 167° |
| 2026-04-24 19:58 | 53.58571 | 10.25066 | 10232 ft | 366 kts | 166° |
| 2026-04-24 19:58 | 53.56052 | 10.26217 | 10371 ft | 385 kts | 166° |
| 2026-04-24 19:59 | 53.53408 | 10.27431 | 10499 ft | 402 kts | 166° |
| 2026-04-24 19:59 | 53.50685 | 10.28681 | 10899 ft | 408 kts | 166° |
| 2026-04-24 19:59 | 53.47933 | 10.29941 | 11419 ft | 411 kts | 166° |
| 2026-04-24 19:59 | 53.45198 | 10.31190 | 11954 ft | 413 kts | 166° |
| 2026-04-24 20:00 | 53.42419 | 10.32457 | 12484 ft | 416 kts | 166° |
| 2026-04-24 20:00 | 53.39616 | 10.33732 | 13020 ft | 418 kts | 167° |
| 2026-04-24 20:00 | 53.36797 | 10.35008 | 13485 ft | 422 kts | 167° |
| 2026-04-24 20:00 | 53.33952 | 10.36284 | 13945 ft | 424 kts | 167° |
| 2026-04-24 20:01 | 53.31090 | 10.37562 | 14364 ft | 426 kts | 167° |
| 2026-04-24 20:01 | 53.28224 | 10.38841 | 14767 ft | 428 kts | 167° |
| 2026-04-24 20:01 | 53.25343 | 10.40126 | 15186 ft | 429 kts | 167° |
| 2026-04-24 20:01 | 53.22459 | 10.41416 | 15586 ft | 430 kts | 167° |
| 2026-04-24 20:02 | 53.20540 | 10.42275 | 15847 ft | 431 kts | 167° |
| 2026-04-24 20:02 | 53.16643 | 10.44014 | 16370 ft | 434 kts | 167° |
| 2026-04-24 20:02 | 53.13721 | 10.45311 | 16741 ft | 436 kts | 167° |
| 2026-04-24 20:02 | 53.10773 | 10.46517 | 17133 ft | 437 kts | 170° |
| 2026-04-24 20:03 | 53.07790 | 10.47541 | 17550 ft | 438 kts | 172° |
| 2026-04-24 20:03 | 53.04781 | 10.48444 | 17957 ft | 440 kts | 173° |
| 2026-04-24 20:03 | 53.01756 | 10.49290 | 18363 ft | 442 kts | 173° |
| 2026-04-24 20:03 | 52.98718 | 10.50137 | 18734 ft | 444 kts | 173° |
| 2026-04-24 20:04 | 52.95671 | 10.51019 | 19103 ft | 446 kts | 173° |
| 2026-04-24 20:04 | 52.92651 | 10.51926 | 19477 ft | 447 kts | 172° |
| 2026-04-24 20:04 | 52.89584 | 10.52874 | 19845 ft | 449 kts | 172° |
| 2026-04-24 20:04 | 52.86504 | 10.53843 | 20225 ft | 451 kts | 172° |
| 2026-04-24 20:05 | 52.83418 | 10.54817 | 20587 ft | 452 kts | 172° |
| 2026-04-24 20:05 | 52.80320 | 10.55787 | 20949 ft | 454 kts | 172° |
| 2026-04-24 20:05 | 52.77208 | 10.56753 | 21290 ft | 456 kts | 173° |
| 2026-04-24 20:05 | 52.74088 | 10.57713 | 21652 ft | 457 kts | 173° |
| 2026-04-24 20:06 | 52.70952 | 10.58674 | 22010 ft | 458 kts | 173° |
| 2026-04-24 20:06 | 52.67811 | 10.59633 | 22334 ft | 461 kts | 173° |
| 2026-04-24 20:06 | 52.64653 | 10.60596 | 22634 ft | 463 kts | 173° |
| 2026-04-24 20:06 | 52.61519 | 10.61555 | 23531 ft | 450 kts | 173° |
| 2026-04-24 20:07 | 52.59496 | 10.62176 | 24080 ft | 444 kts | 173° |
| 2026-04-24 20:07 | 52.55441 | 10.63413 | 24689 ft | 442 kts | 174° |
| 2026-04-24 20:07 | 52.52420 | 10.64328 | 25001 ft | 443 kts | 174° |
| 2026-04-24 20:07 | 52.49384 | 10.65246 | 25312 ft | 444 kts | 174° |
| 2026-04-24 20:08 | 52.46337 | 10.66167 | 25615 ft | 446 kts | 174° |
| 2026-04-24 20:08 | 52.43277 | 10.67092 | 25923 ft | 448 kts | 174° |
| 2026-04-24 20:08 | 52.40214 | 10.68019 | 26231 ft | 449 kts | 174° |
| 2026-04-24 20:08 | 52.38176 | 10.68635 | 26496 ft | 448 kts | 174° |
| 2026-04-24 20:09 | 52.35119 | 10.69558 | 26910 ft | 447 kts | 174° |
| 2026-04-24 20:09 | 52.32067 | 10.70477 | 27314 ft | 446 kts | 174° |
| 2026-04-24 20:09 | 52.29020 | 10.71392 | 27715 ft | 445 kts | 175° |
| 2026-04-24 20:09 | 52.25980 | 10.72301 | 28099 ft | 444 kts | 175° |
| 2026-04-24 20:10 | 52.22953 | 10.73207 | 28518 ft | 442 kts | 175° |
| 2026-04-24 20:10 | 52.19926 | 10.74116 | 28931 ft | 441 kts | 175° |
| 2026-04-24 20:10 | 52.16910 | 10.75024 | 29330 ft | 440 kts | 175° |
| 2026-04-24 20:10 | 52.13904 | 10.75924 | 29717 ft | 439 kts | 176° |
| 2026-04-24 20:11 | 52.10903 | 10.76817 | 30099 ft | 438 kts | 176° |
| 2026-04-24 20:11 | 52.07902 | 10.77707 | 30424 ft | 437 kts | 176° |
| 2026-04-24 20:11 | 52.04945 | 10.78584 | 30731 ft | 437 kts | 176° |
| 2026-04-24 20:11 | 52.01955 | 10.79472 | 31012 ft | 436 kts | 176° |
| 2026-04-24 20:12 | 51.98967 | 10.80358 | 31331 ft | 435 kts | 176° |
| 2026-04-24 20:12 | 51.95988 | 10.81244 | 31636 ft | 435 kts | 176° |
| 2026-04-24 20:12 | 51.93011 | 10.82128 | 31891 ft | 436 kts | 176° |
| 2026-04-24 20:12 | 51.90031 | 10.83012 | 32168 ft | 436 kts | 176° |
| 2026-04-24 20:13 | 51.87049 | 10.83893 | 32449 ft | 435 kts | 176° |
| 2026-04-24 20:13 | 51.84072 | 10.84768 | 32746 ft | 435 kts | 176° |
| 2026-04-24 20:13 | 51.81093 | 10.85645 | 33036 ft | 434 kts | 176° |
| 2026-04-24 20:13 | 51.78125 | 10.86520 | 33303 ft | 434 kts | 176° |
| 2026-04-24 20:14 | 51.75153 | 10.87395 | 33595 ft | 433 kts | 176° |
| 2026-04-24 20:14 | 51.72201 | 10.88258 | 33893 ft | 432 kts | 176° |
| 2026-04-24 20:14 | 51.69249 | 10.89163 | 34171 ft | 433 kts | 173° |
| 2026-04-24 20:14 | 51.66350 | 10.90598 | 34394 ft | 440 kts | 164° |
| 2026-04-24 20:15 | 51.63552 | 10.92667 | 34614 ft | 444 kts | 159° |
| 2026-04-24 20:15 | 51.60784 | 10.94873 | 34815 ft | 443 kts | 159° |
| 2026-04-24 20:15 | 51.58054 | 10.97036 | 35028 ft | 443 kts | 159° |
| 2026-04-24 20:15 | 51.55278 | 10.99223 | 35129 ft | 446 kts | 159° |
| 2026-04-24 20:16 | 51.52466 | 11.01425 | 35123 ft | 451 kts | 159° |
| 2026-04-24 20:16 | 51.46763 | 11.05883 | 35146 ft | 461 kts | 159° |
| 2026-04-24 20:17 | 51.40926 | 11.10452 | 35150 ft | 472 kts | 159° |
| 2026-04-24 20:17 | 51.32004 | 11.17446 | 35145 ft | 478 kts | 159° |
| 2026-04-24 20:18 | 51.26027 | 11.22107 | 35130 ft | 478 kts | 159° |
| 2026-04-24 20:18 | 51.20059 | 11.26731 | 35151 ft | 476 kts | 159° |
| 2026-04-24 20:19 | 51.14103 | 11.31333 | 35145 ft | 476 kts | 159° |
| 2026-04-24 20:19 | 51.08149 | 11.35928 | 35149 ft | 476 kts | 159° |
| 2026-04-24 20:20 | 51.02179 | 11.40521 | 35153 ft | 476 kts | 159° |
| 2026-04-24 20:20 | 50.96214 | 11.45092 | 35142 ft | 476 kts | 159° |
| 2026-04-24 20:21 | 50.90240 | 11.49656 | 35151 ft | 477 kts | 159° |
| 2026-04-24 20:21 | 50.84261 | 11.54215 | 35147 ft | 476 kts | 159° |
| 2026-04-24 20:22 | 50.78327 | 11.58727 | 35150 ft | 477 kts | 159° |
| 2026-04-24 20:22 | 50.72350 | 11.63261 | 35137 ft | 476 kts | 159° |
| 2026-04-24 20:23 | 50.66378 | 11.67776 | 35149 ft | 476 kts | 159° |
| 2026-04-24 20:23 | 50.60408 | 11.72270 | 35152 ft | 476 kts | 159° |
| 2026-04-24 20:24 | 50.54431 | 11.76754 | 35141 ft | 476 kts | 159° |
| 2026-04-24 20:24 | 50.48444 | 11.81239 | 35138 ft | 477 kts | 159° |
| 2026-04-24 20:25 | 50.42431 | 11.85624 | 35135 ft | 476 kts | 160° |
| 2026-04-24 20:25 | 50.36351 | 11.89700 | 35136 ft | 475 kts | 162° |
| 2026-04-24 20:26 | 50.30242 | 11.93701 | 35138 ft | 475 kts | 161° |
| 2026-04-24 20:26 | 50.24160 | 11.97764 | 35122 ft | 475 kts | 161° |
| 2026-04-24 20:27 | 50.18094 | 12.01863 | 35134 ft | 475 kts | 160° |
| 2026-04-24 20:27 | 50.12059 | 12.05923 | 35130 ft | 475 kts | 160° |
| 2026-04-24 20:28 | 50.05968 | 12.09842 | 35115 ft | 471 kts | 168° |
| 2026-04-24 20:28 | 50.02799 | 12.11190 | 34887 ft | 470 kts | 169° |
| 2026-04-24 20:28 | 49.99631 | 12.12482 | 34618 ft | 470 kts | 169° |
| 2026-04-24 20:29 | 49.97535 | 12.13324 | 34456 ft | 470 kts | 169° |
| 2026-04-24 20:29 | 49.93302 | 12.15008 | 34135 ft | 469 kts | 169° |
| 2026-04-24 20:29 | 49.90142 | 12.16264 | 33859 ft | 470 kts | 169° |
| 2026-04-24 20:29 | 49.86971 | 12.17527 | 33583 ft | 470 kts | 169° |
| 2026-04-24 20:30 | 49.83804 | 12.18796 | 33321 ft | 471 kts | 169° |
| 2026-04-24 20:30 | 49.80631 | 12.20072 | 33057 ft | 471 kts | 169° |
| 2026-04-24 20:30 | 49.77455 | 12.21351 | 32770 ft | 472 kts | 169° |
| 2026-04-24 20:30 | 49.74276 | 12.22633 | 32511 ft | 472 kts | 169° |
| 2026-04-24 20:31 | 49.71090 | 12.23911 | 32252 ft | 472 kts | 169° |
| 2026-04-24 20:31 | 49.67906 | 12.25178 | 32004 ft | 473 kts | 169° |
| 2026-04-24 20:31 | 49.64754 | 12.26429 | 31748 ft | 475 kts | 168° |
| 2026-04-24 20:31 | 49.61549 | 12.27700 | 31500 ft | 476 kts | 168° |
| 2026-04-24 20:32 | 49.58339 | 12.28973 | 31247 ft | 477 kts | 168° |
| 2026-04-24 20:32 | 49.55128 | 12.30247 | 31064 ft | 477 kts | 168° |
| 2026-04-24 20:32 | 49.48695 | 12.32802 | 31111 ft | 477 kts | 168° |
| 2026-04-24 20:33 | 49.42262 | 12.35354 | 30889 ft | 477 kts | 168° |
| 2026-04-24 20:33 | 49.39040 | 12.36625 | 30638 ft | 477 kts | 168° |
| 2026-04-24 20:33 | 49.35824 | 12.37890 | 30390 ft | 478 kts | 168° |
| 2026-04-24 20:34 | 49.32604 | 12.39154 | 29677 ft | 478 kts | 168° |
| 2026-04-24 20:34 | 49.29349 | 12.40428 | 28425 ft | 484 kts | 168° |
| 2026-04-24 20:34 | 49.26093 | 12.41701 | 27456 ft | 483 kts | 167° |
| 2026-04-24 20:34 | 49.22816 | 12.42987 | 26281 ft | 487 kts | 167° |
| 2026-04-24 20:35 | 49.19518 | 12.44283 | 25060 ft | 492 kts | 167° |
| 2026-04-24 20:35 | 49.16193 | 12.45588 | 23945 ft | 495 kts | 167° |
| 2026-04-24 20:35 | 49.12854 | 12.46891 | 22893 ft | 494 kts | 167° |
| 2026-04-24 20:35 | 49.09595 | 12.48157 | 22113 ft | 487 kts | 167° |
| 2026-04-24 20:36 | 49.06331 | 12.49424 | 21289 ft | 481 kts | 167° |
| 2026-04-24 20:36 | 49.03106 | 12.50677 | 20515 ft | 475 kts | 167° |
| 2026-04-24 20:36 | 48.99914 | 12.51919 | 19737 ft | 470 kts | 167° |
| 2026-04-24 20:36 | 48.96761 | 12.53144 | 18969 ft | 465 kts | 167° |
| 2026-04-24 20:37 | 48.93633 | 12.54356 | 18205 ft | 460 kts | 167° |
| 2026-04-24 20:37 | 48.90549 | 12.55545 | 17455 ft | 454 kts | 167° |
| 2026-04-24 20:37 | 48.87519 | 12.56715 | 16767 ft | 446 kts | 167° |
| 2026-04-24 20:37 | 48.84540 | 12.57867 | 16099 ft | 438 kts | 167° |
| 2026-04-24 20:38 | 48.81608 | 12.58997 | 15452 ft | 430 kts | 166° |
| 2026-04-24 20:38 | 48.78739 | 12.60099 | 14836 ft | 422 kts | 166° |
| 2026-04-24 20:38 | 48.75907 | 12.61185 | 14245 ft | 414 kts | 166° |
| 2026-04-24 20:38 | 48.73134 | 12.62249 | 13651 ft | 409 kts | 166° |
| 2026-04-24 20:39 | 48.70389 | 12.63303 | 13054 ft | 405 kts | 166° |
| 2026-04-24 20:39 | 48.67669 | 12.64345 | 12504 ft | 402 kts | 166° |
| 2026-04-24 20:39 | 48.64994 | 12.65370 | 11943 ft | 398 kts | 166° |
| 2026-04-24 20:39 | 48.62320 | 12.66392 | 11457 ft | 392 kts | 166° |
| 2026-04-24 20:40 | 48.59733 | 12.67376 | 11311 ft | 374 kts | 167° |
| 2026-04-24 20:40 | 48.57262 | 12.68314 | 11186 ft | 358 kts | 167° |
| 2026-04-24 20:40 | 48.54903 | 12.69211 | 11066 ft | 342 kts | 167° |
| 2026-04-24 20:40 | 48.52638 | 12.70075 | 10944 ft | 328 kts | 167° |
| 2026-04-24 20:41 | 48.50470 | 12.70900 | 10779 ft | 316 kts | 167° |
| 2026-04-24 20:41 | 48.48353 | 12.71704 | 10515 ft | 310 kts | 168° |
| 2026-04-24 20:41 | 48.46270 | 12.72490 | 10244 ft | 306 kts | 168° |
| 2026-04-24 20:41 | 48.44201 | 12.73271 | 10032 ft | 306 kts | 168° |
| 2026-04-24 20:42 | 48.42134 | 12.74056 | 9797 ft | 305 kts | 168° |
| 2026-04-24 20:42 | 48.40079 | 12.74838 | 9557 ft | 304 kts | 168° |
| 2026-04-24 20:42 | 48.38034 | 12.75604 | 9325 ft | 302 kts | 168° |
| 2026-04-24 20:42 | 48.35992 | 12.76351 | 9087 ft | 301 kts | 169° |
| 2026-04-24 20:43 | 48.33963 | 12.77087 | 8846 ft | 299 kts | 169° |
| 2026-04-24 20:43 | 48.31948 | 12.77817 | 8623 ft | 297 kts | 169° |
| 2026-04-24 20:43 | 48.29943 | 12.78545 | 8394 ft | 296 kts | 169° |
| 2026-04-24 20:43 | 48.27946 | 12.79270 | 8166 ft | 294 kts | 169° |
| 2026-04-24 20:44 | 48.25960 | 12.79989 | 7941 ft | 292 kts | 169° |
| 2026-04-24 20:44 | 48.23987 | 12.80701 | 7729 ft | 291 kts | 169° |
| 2026-04-24 20:44 | 48.22022 | 12.81411 | 7456 ft | 289 kts | 169° |
| 2026-04-24 20:44 | 48.20074 | 12.82116 | 7172 ft | 287 kts | 169° |
| 2026-04-24 20:45 | 48.18158 | 12.82810 | 6915 ft | 285 kts | 169° |
| 2026-04-24 20:45 | 48.16235 | 12.83504 | 6640 ft | 283 kts | 170° |
| 2026-04-24 20:45 | 48.14327 | 12.84192 | 6352 ft | 281 kts | 170° |
| 2026-04-24 20:45 | 48.12430 | 12.84877 | 6078 ft | 280 kts | 169° |
| 2026-04-24 20:46 | 48.10538 | 12.85561 | 5799 ft | 279 kts | 169° |
| 2026-04-24 20:46 | 48.08657 | 12.86244 | 5544 ft | 278 kts | 169° |
| 2026-04-24 20:46 | 48.06785 | 12.86924 | 5273 ft | 277 kts | 169° |
| 2026-04-24 20:46 | 48.04933 | 12.87596 | 5100 ft | 267 kts | 169° |
| 2026-04-24 20:47 | 48.03174 | 12.88237 | 5000 ft | 254 kts | 169° |
| 2026-04-24 20:47 | 48.01489 | 12.88845 | 4900 ft | 245 kts | 169° |
| 2026-04-24 20:47 | 47.99834 | 12.89305 | 4797 ft | 236 kts | 181° |
| 2026-04-24 20:47 | 47.98247 | 12.89351 | 4688 ft | 222 kts | 182° |
| 2026-04-24 20:48 | 47.96775 | 12.89507 | 4596 ft | 209 kts | 170° |
| 2026-04-24 20:48 | 47.95413 | 12.90199 | 4462 ft | 204 kts | 161° |
| 2026-04-24 20:48 | 47.94104 | 12.91021 | 4327 ft | 203 kts | 160° |
| 2026-04-24 20:48 | 47.92805 | 12.91850 | 4085 ft | 203 kts | 160° |
| 2026-04-24 20:49 | 47.91513 | 12.92672 | 3827 ft | 201 kts | 159° |
| 2026-04-24 20:49 | 47.90231 | 12.93486 | 3560 ft | 199 kts | 159° |
| 2026-04-24 20:49 | 47.89002 | 12.94269 | 3326 ft | 185 kts | 159° |
| 2026-04-24 20:49 | 47.87866 | 12.94994 | 3084 ft | 170 kts | 159° |
| 2026-04-24 20:50 | 47.86804 | 12.95668 | 2834 ft | 164 kts | 159° |
| 2026-04-24 20:50 | 47.85770 | 12.96327 | 2601 ft | 158 kts | 159° |
| 2026-04-24 20:50 | 47.84772 | 12.96956 | 2405 ft | 154 kts | 158° |
| 2026-04-24 20:50 | 47.83811 | 12.97563 | 2200 ft | 149 kts | 158° |
| 2026-04-24 20:51 | 47.82858 | 12.98159 | 1999 ft | 148 kts | 158° |
| 2026-04-24 20:51 | 47.81918 | 12.98756 | 1806 ft | 146 kts | 158° |
| 2026-04-24 20:51 | 47.80979 | 12.99349 | 1617 ft | 146 kts | 157° |
| 2026-04-24 20:51 | 47.80056 | 12.99937 | 1436 ft | 141 kts | 156° |
| 2026-04-24 20:52 | 47.79249 | 13.00447 | 1421 ft | 101 kts | 157° |
| 2026-04-24 20:52 | 47.78776 | 13.00743 | 1421 ft | 40 kts | 158° |
| 2026-04-24 20:52 | 47.78611 | 13.00848 | 1421 ft | 16 kts | 162° |
| 2026-04-24 20:52 | 47.78541 | 13.00762 | 1420 ft | 14 kts | 248° |
| 2026-04-24 20:53 | 47.78547 | 13.00634 | 1423 ft | 12 kts | 311° |
| 2026-04-24 20:53 | 47.78620 | 13.00578 | 1420 ft | 11 kts | 336° |
| 2026-04-24 20:53 | 47.78688 | 13.00535 | 1424 ft | 11 kts | 337° |
| 2026-04-24 20:53 | 47.78766 | 13.00485 | 1420 ft | 12 kts | 336° |
| 2026-04-24 20:54 | 47.78838 | 13.00439 | 1420 ft | 11 kts | 337° |
| 2026-04-24 20:54 | 47.78903 | 13.00398 | 1425 ft | 10 kts | 337° |
| 2026-04-24 20:54 | 47.78950 | 13.00340 | 1420 ft | 9 kts | 290° |
| 2026-04-24 20:54 | 47.78955 | 13.00233 | 1420 ft | 11 kts | 272° |
| 2026-04-24 20:55 | 47.78982 | 13.00142 | 1420 ft | 9 kts | 323° |
| 2026-04-24 20:55 | 47.79038 | 13.00105 | 1420 ft | 8 kts | 337° |
| 2026-04-24 20:55 | 47.79101 | 13.00064 | 1423 ft | 12 kts | 337° |
| 2026-04-24 20:55 | 47.79175 | 13.00017 | 1421 ft | 11 kts | 337° |
| 2026-04-24 20:56 | 47.79232 | 12.99977 | 1422 ft | 7 kts | 319° |
| 2026-04-24 20:56 | 47.79248 | 12.99893 | 1420 ft | 8 kts | 282° |
| 2026-04-24 20:56 | 47.79257 | 12.99832 | 1422 ft | 3 kts | 282° |
| 2026-04-24 20:56 | 47.79258 | 12.99823 | 1421 ft | 0 kts | 282° |